Time;durP1;ratioP1;P1;durP2;ratioP2;P2;SDS_P1;SDS_P2;PMS_P1;PMS_P2;Temp;Humidity;BMP_temperature;BMP_pressure;BME280_temperature;BME280_humidity;BME280_pressure;Samples;Min_cycle;Max_cycle;Signal;HPM_P1;HPM_P2
2023/11/24 00:01:33;;;;;;;8.90;5.57;;;5.10;97.70;;;;;;5009145;28;20205;-86
2023/11/24 00:04:01;;;;;;;7.20;5.20;;;5.10;97.20;;;;;;5008829;28;20203;-89
2023/11/24 00:06:31;;;;;;;7.33;5.60;;;5.30;97.00;;;;;;5012779;28;20199;-87
2023/11/24 00:08:58;;;;;;;6.40;5.03;;;5.30;96.80;;;;;;5007417;28;20208;-87
2023/11/24 00:11:26;;;;;;;7.90;5.60;;;5.30;96.80;;;;;;5013279;28;20239;-90
2023/11/24 00:13:53;;;;;;;6.63;4.90;;;5.40;96.60;;;;;;5009601;28;20223;-89
2023/11/24 00:16:20;;;;;;;6.60;4.40;;;5.40;96.80;;;;;;5015244;28;20254;-87
2023/11/24 00:18:47;;;;;;;6.33;4.90;;;5.50;96.30;;;;;;5027495;28;20221;-90
2023/11/24 00:21:17;;;;;;;4.90;3.83;;;5.50;96.30;;;;;;5033043;28;20244;-87
2023/11/24 00:23:46;;;;;;;6.23;4.87;;;5.50;96.50;;;;;;5033537;28;20223;-89
2023/11/24 00:26:13;;;;;;;5.87;4.70;;;5.50;96.40;;;;;;5012609;28;20278;-89
2023/11/24 00:28:39;;;;;;;5.10;4.40;;;5.60;96.30;;;;;;5014742;28;20195;-89
2023/11/24 00:31:08;;;;;;;7.50;4.57;;;5.60;96.20;;;;;;5012640;28;20196;-89
2023/11/24 00:33:35;;;;;;;7.33;4.67;;;5.70;95.90;;;;;;5007854;28;20222;-89
2023/11/24 00:36:02;;;;;;;6.23;4.70;;;5.60;96.00;;;;;;4984781;28;20659;-89
2023/11/24 00:38:30;;;;;;;5.40;4.37;;;5.60;96.00;;;;;;5011764;28;20200;-89
2023/11/24 00:40:58;;;;;;;5.17;4.20;;;5.60;96.00;;;;;;5011366;28;20199;-89
2023/11/24 00:43:26;;;;;;;5.37;4.07;;;5.60;96.30;;;;;;5009372;28;20215;-89
2023/11/24 00:45:53;;;;;;;5.43;4.20;;;5.70;96.30;;;;;;5009580;28;20294;-89
2023/11/24 00:48:21;;;;;;;4.83;3.93;;;5.70;96.40;;;;;;5003699;28;20202;-89
2023/11/24 00:50:50;;;;;;;4.87;3.70;;;5.70;96.30;;;;;;5009925;28;20227;-89
2023/11/24 00:53:17;;;;;;;4.97;3.70;;;5.80;96.40;;;;;;5008221;28;20222;-89
2023/11/24 00:55:45;;;;;;;6.43;3.63;;;5.90;96.60;;;;;;5008065;28;20203;-89
2023/11/24 00:58:12;;;;;;;5.17;3.37;;;5.90;96.50;;;;;;5009058;28;20210;-89
2023/11/24 01:00:39;;;;;;;4.53;3.10;;;5.90;96.60;;;;;;5010949;28;20203;-89
2023/11/24 01:03:06;;;;;;;5.40;3.30;;;6.00;96.60;;;;;;5004916;28;20204;-89
2023/11/24 01:05:36;;;;;;;5.07;3.10;;;6.10;96.40;;;;;;5007770;28;20250;-89
2023/11/24 01:08:03;;;;;;;4.47;3.20;;;6.20;96.20;;;;;;5010882;28;20338;-88
2023/11/24 01:10:30;;;;;;;4.47;2.80;;;6.20;96.30;;;;;;5010577;28;20652;-89
2023/11/24 01:12:59;;;;;;;4.97;2.90;;;6.10;96.20;;;;;;5010672;28;20235;-89
2023/11/24 01:15:26;;;;;;;3.50;3.00;;;6.10;96.30;;;;;;5009835;28;20203;-89
2023/11/24 01:17:54;;;;;;;3.27;2.90;;;6.10;96.40;;;;;;5008088;28;20191;-89
2023/11/24 01:20:21;;;;;;;3.47;2.83;;;6.10;96.30;;;;;;5011594;28;20222;-89
2023/11/24 01:22:48;;;;;;;3.23;2.90;;;6.20;96.20;;;;;;5009795;28;20718;-89
2023/11/24 01:25:15;;;;;;;3.33;2.67;;;6.20;96.20;;;;;;5011089;28;20203;-89
2023/11/24 01:27:42;;;;;;;3.23;2.90;;;6.20;95.80;;;;;;5010819;28;20211;-89
2023/11/24 01:30:12;;;;;;;3.50;2.90;;;6.30;95.60;;;;;;5010098;28;20610;-89
2023/11/24 01:32:40;;;;;;;3.30;3.00;;;6.20;95.80;;;;;;5004929;28;20199;-89
2023/11/24 01:35:09;;;;;;;4.50;2.73;;;6.20;96.00;;;;;;5011685;28;20258;-89
2023/11/24 01:37:36;;;;;;;3.20;2.83;;;6.20;95.90;;;;;;5009557;28;20199;-89
2023/11/24 01:40:04;;;;;;;4.13;2.97;;;6.30;95.90;;;;;;5007145;28;20203;-89
2023/11/24 01:42:35;;;;;;;3.70;3.10;;;6.30;95.90;;;;;;5005861;28;20235;-90
2023/11/24 01:45:04;;;;;;;4.00;2.97;;;6.30;95.90;;;;;;5010073;28;20209;-89
2023/11/24 01:47:32;;;;;;;3.27;2.80;;;6.30;95.90;;;;;;5010469;28;20210;-87
2023/11/24 01:49:59;;;;;;;5.13;2.27;;;6.30;96.10;;;;;;5006518;28;20218;-87
2023/11/24 01:52:26;;;;;;;2.87;2.57;;;6.30;96.70;;;;;;5004973;28;20230;-88
2023/11/24 01:54:53;;;;;;;4.10;2.57;;;6.40;96.60;;;;;;5005498;28;20215;-87
2023/11/24 01:57:22;;;;;;;3.00;2.70;;;6.50;96.60;;;;;;5006582;28;20231;-88
2023/11/24 01:59:49;;;;;;;3.50;2.70;;;6.50;96.50;;;;;;5012267;28;20199;-87
2023/11/24 02:02:16;;;;;;;3.73;2.77;;;6.60;96.20;;;;;;5010840;28;20203;-88
2023/11/24 02:04:45;;;;;;;3.13;2.87;;;6.60;96.20;;;;;;5009534;28;20211;-87
2023/11/24 02:07:12;;;;;;;3.00;2.47;;;6.60;96.20;;;;;;5005915;28;20294;-87
2023/11/24 02:09:41;;;;;;;3.37;2.57;;;6.60;96.40;;;;;;5006606;28;20192;-86
2023/11/24 02:12:08;;;;;;;2.90;2.40;;;6.60;96.40;;;;;;5012104;28;20207;-87
2023/11/24 02:14:35;;;;;;;2.40;2.20;;;6.60;96.20;;;;;;5009676;28;20218;-89
2023/11/24 02:17:01;;;;;;;3.07;2.70;;;6.70;96.20;;;;;;5012211;28;20202;-86
2023/11/24 02:19:28;;;;;;;3.43;2.73;;;6.70;96.10;;;;;;5010126;28;20203;-87
2023/11/24 02:21:57;;;;;;;3.83;2.73;;;6.60;96.30;;;;;;5000535;28;20242;-86
2023/11/24 02:24:25;;;;;;;2.97;2.77;;;6.60;96.20;;;;;;5010663;28;20295;-86
2023/11/24 02:26:52;;;;;;;3.00;2.57;;;6.60;96.10;;;;;;5009493;28;20258;-89
2023/11/24 02:29:19;;;;;;;3.00;2.70;;;6.60;96.20;;;;;;5009286;28;20218;-87
2023/11/24 02:31:45;;;;;;;2.80;2.43;;;6.50;96.30;;;;;;5008674;28;20653;-89
2023/11/24 02:34:13;;;;;;;3.70;2.90;;;6.50;96.60;;;;;;5013994;28;20223;-89
2023/11/24 02:36:42;;;;;;;4.10;3.03;;;6.50;96.70;;;;;;5014074;28;20225;-89
2023/11/24 02:39:09;;;;;;;3.43;3.13;;;6.50;96.80;;;;;;5014856;28;20214;-89
2023/11/24 02:41:37;;;;;;;4.77;3.40;;;6.50;96.80;;;;;;5010906;28;20203;-89
2023/11/24 02:44:05;;;;;;;3.63;3.10;;;6.50;96.80;;;;;;5011860;28;20204;-89
2023/11/24 02:46:32;;;;;;;3.60;2.90;;;6.40;97.00;;;;;;5011331;28;20214;-89
2023/11/24 02:48:58;;;;;;;3.40;3.10;;;6.40;97.00;;;;;;5008208;28;21476;-89
2023/11/24 02:51:25;;;;;;;3.13;2.83;;;6.50;97.10;;;;;;5012108;28;20227;-89
2023/11/24 02:53:52;;;;;;;4.70;3.37;;;6.40;97.50;;;;;;5009475;28;20626;-89
2023/11/24 02:56:19;;;;;;;3.80;3.40;;;6.40;98.00;;;;;;5007993;28;20259;-88
2023/11/24 02:58:48;;;;;;;4.83;3.60;;;6.30;98.20;;;;;;5009398;28;20207;-89
2023/11/24 03:01:15;;;;;;;3.33;3.03;;;6.40;98.10;;;;;;5007539;28;20200;-89
2023/11/24 03:03:41;;;;;;;3.77;3.37;;;6.40;98.40;;;;;;5009752;28;20195;-89
2023/11/24 03:06:09;;;;;;;3.77;3.30;;;6.40;98.70;;;;;;5011542;28;20209;-89
2023/11/24 03:08:36;;;;;;;3.60;3.20;;;6.30;99.30;;;;;;5013596;28;20203;-89
2023/11/24 03:11:05;;;;;;;5.27;3.47;;;6.30;99.50;;;;;;5013259;28;20206;-87
2023/11/24 03:13:33;;;;;;;4.07;3.50;;;6.20;99.90;;;;;;5012562;28;20202;-89
2023/11/24 03:16:02;;;;;;;4.50;3.73;;;6.20;99.90;;;;;;5009992;28;20269;-89
2023/11/24 03:18:29;;;;;;;3.67;3.27;;;6.10;99.90;;;;;;5007598;28;20207;-89
2023/11/24 03:20:56;;;;;;;4.10;3.70;;;6.10;99.90;;;;;;5009073;28;20203;-89
2023/11/24 03:23:23;;;;;;;4.77;3.93;;;6.20;99.90;;;;;;5011838;28;20230;-89
2023/11/24 03:25:51;;;;;;;4.17;3.77;;;6.10;99.90;;;;;;5011436;28;20203;-89
2023/11/24 03:28:20;;;;;;;4.30;3.90;;;6.10;99.90;;;;;;5014244;28;20200;-89
2023/11/24 03:30:47;;;;;;;4.80;3.80;;;6.10;99.90;;;;;;5010709;28;20653;-89
2023/11/24 03:33:16;;;;;;;4.80;3.93;;;6.10;99.90;;;;;;5024371;28;20203;-89
2023/11/24 03:35:43;;;;;;;3.97;3.57;;;6.10;99.90;;;;;;5036058;28;20278;-89
2023/11/24 03:38:10;;;;;;;3.73;3.43;;;6.20;99.90;;;;;;5037498;28;20209;-89
2023/11/24 03:40:36;;;;;;;5.20;3.50;;;6.20;99.90;;;;;;5020295;28;20294;-89
2023/11/24 03:43:03;;;;;;;5.27;3.40;;;6.20;99.90;;;;;;5008679;28;20192;-89
2023/11/24 03:45:30;;;;;;;5.57;3.60;;;6.20;99.90;;;;;;5011498;28;20290;-89
2023/11/24 03:47:57;;;;;;;4.30;3.47;;;6.30;99.90;;;;;;5010093;28;20204;-88
2023/11/24 03:50:25;;;;;;;3.73;3.30;;;6.40;99.90;;;;;;5010529;28;20294;-89
2023/11/24 03:52:53;;;;;;;3.50;3.07;;;6.40;99.90;;;;;;5002922;28;20575;-89
2023/11/24 03:55:20;;;;;;;3.83;3.37;;;6.40;99.90;;;;;;5011405;28;20270;-89
2023/11/24 03:57:47;;;;;;;2.97;2.57;;;6.50;99.90;;;;;;5001700;28;20214;-89
2023/11/24 04:00:14;;;;;;;3.50;2.97;;;6.50;99.90;;;;;;5010128;28;20191;-89
2023/11/24 04:02:42;;;;;;;3.50;2.70;;;6.50;99.90;;;;;;5012431;28;20210;-88
2023/11/24 04:05:10;;;;;;;3.53;2.80;;;6.60;99.90;;;;;;5006046;28;20197;-89
2023/11/24 04:07:40;;;;;;;2.77;2.57;;;6.60;99.90;;;;;;4990995;28;20254;-89
2023/11/24 04:10:08;;;;;;;3.00;2.70;;;6.70;99.90;;;;;;5007383;28;20669;-89
2023/11/24 04:12:35;;;;;;;4.13;2.87;;;6.70;99.90;;;;;;5010489;28;20607;-89
2023/11/24 04:15:03;;;;;;;2.67;2.47;;;6.70;99.90;;;;;;5011355;28;20547;-89
2023/11/24 04:17:30;;;;;;;2.70;2.50;;;6.70;99.90;;;;;;5014761;28;20219;-89
2023/11/24 04:19:57;;;;;;;2.97;2.67;;;6.70;99.90;;;;;;5008829;28;20198;-89
2023/11/24 04:22:23;;;;;;;2.93;2.67;;;6.70;99.90;;;;;;5006669;28;20207;-89
2023/11/24 04:24:52;;;;;;;2.40;2.20;;;6.70;99.80;;;;;;5010748;28;20648;-90
2023/11/24 04:27:19;;;;;;;3.20;2.57;;;6.80;99.70;;;;;;5010151;28;21450;-89
2023/11/24 04:29:46;;;;;;;2.30;2.10;;;6.80;99.50;;;;;;5013395;28;20640;-88
2023/11/24 04:32:13;;;;;;;2.63;2.40;;;6.80;99.40;;;;;;5011394;28;20254;-89
2023/11/24 04:34:40;;;;;;;3.07;2.40;;;6.80;99.50;;;;;;5010224;28;20230;-89
2023/11/24 04:37:07;;;;;;;2.83;2.30;;;6.80;99.80;;;;;;5009127;28;20195;-89
2023/11/24 04:39:34;;;;;;;2.60;2.30;;;6.80;99.60;;;;;;5013138;28;20203;-88
2023/11/24 04:42:03;;;;;;;2.13;1.93;;;6.80;99.90;;;;;;4988926;28;20545;-88
2023/11/24 04:44:31;;;;;;;2.33;2.13;;;6.70;99.90;;;;;;5007683;28;20274;-89
2023/11/24 04:46:59;;;;;;;4.03;2.20;;;6.70;99.90;;;;;;5009811;28;20195;-88
2023/11/24 04:49:26;;;;;;;2.50;2.27;;;6.60;99.90;;;;;;5006310;28;20266;-89
2023/11/24 04:51:53;;;;;;;2.60;2.00;;;6.60;99.90;;;;;;5011598;28;20235;-89
2023/11/24 04:54:21;;;;;;;3.17;2.13;;;6.60;99.90;;;;;;5011418;28;20208;-88
2023/11/24 04:56:48;;;;;;;1.90;1.80;;;6.70;99.90;;;;;;5006906;28;21207;-89
2023/11/24 04:59:16;;;;;;;2.07;1.87;;;6.70;99.90;;;;;;5016864;28;20201;-88
2023/11/24 05:01:44;;;;;;;1.97;1.80;;;6.70;99.90;;;;;;5007536;28;20196;-89
2023/11/24 05:04:11;;;;;;;1.93;1.83;;;6.80;99.90;;;;;;5009970;28;20207;-88
2023/11/24 05:06:38;;;;;;;2.20;2.00;;;6.80;99.90;;;;;;5011678;28;20561;-88
2023/11/24 05:09:05;;;;;;;1.70;1.60;;;6.80;99.90;;;;;;5005796;28;20231;-88
2023/11/24 05:11:31;;;;;;;1.90;1.80;;;6.70;99.90;;;;;;5010886;28;20295;-89
2023/11/24 05:13:58;;;;;;;2.00;1.80;;;6.70;99.90;;;;;;5012539;28;20234;-89
2023/11/24 05:16:26;;;;;;;2.00;1.90;;;6.70;99.90;;;;;;5010874;28;20223;-88
2023/11/24 05:18:54;;;;;;;2.10;1.90;;;6.60;99.90;;;;;;5007643;28;20191;-88
2023/11/24 05:21:21;;;;;;;3.37;1.80;;;6.60;99.90;;;;;;5005738;28;20200;-89
2023/11/24 05:23:48;;;;;;;3.13;2.00;;;6.60;99.90;;;;;;5010613;28;20199;-89
2023/11/24 05:26:15;;;;;;;1.70;1.60;;;6.60;99.90;;;;;;5010184;28;20552;-88
2023/11/24 05:28:41;;;;;;;1.80;1.70;;;6.60;99.90;;;;;;4992931;28;20200;-88
2023/11/24 05:31:09;;;;;;;2.00;1.80;;;6.70;99.90;;;;;;5007453;28;20191;-88
2023/11/24 05:33:37;;;;;;;2.10;1.90;;;6.70;99.80;;;;;;5006596;28;20664;-88
2023/11/24 05:36:09;;;;;;;2.20;2.00;;;6.70;99.80;;;;;;5008532;28;20226;-88
2023/11/24 05:38:37;;;;;;;2.17;1.97;;;6.60;99.80;;;;;;5006729;28;20192;-88
2023/11/24 05:41:04;;;;;;;2.17;1.97;;;6.60;99.90;;;;;;5010952;28;20699;-88
2023/11/24 05:43:31;;;;;;;2.00;1.80;;;6.60;99.90;;;;;;5011310;28;20655;-88
2023/11/24 05:45:58;;;;;;;2.33;1.90;;;6.60;99.90;;;;;;5006239;28;20210;-88
2023/11/24 05:48:25;;;;;;;3.00;2.07;;;6.70;99.90;;;;;;5007901;28;20245;-90
2023/11/24 05:50:54;;;;;;;2.67;2.20;;;6.70;99.80;;;;;;5007328;28;20222;-89
2023/11/24 05:53:21;;;;;;;2.33;2.13;;;6.70;99.60;;;;;;5007886;28;20273;-89
2023/11/24 05:55:49;;;;;;;2.40;2.10;;;6.80;99.40;;;;;;5009357;28;20222;-89
2023/11/24 05:58:17;;;;;;;2.53;2.00;;;6.90;99.50;;;;;;5006315;28;20218;-90
2023/11/24 06:00:44;;;;;;;2.57;2.20;;;6.90;99.10;;;;;;5011868;28;20206;-91
2023/11/24 06:03:11;;;;;;;2.43;2.23;;;7.00;99.10;;;;;;5009672;28;20195;-91
2023/11/24 06:05:38;;;;;;;4.30;2.20;;;7.00;99.10;;;;;;5013039;28;20203;-89
2023/11/24 06:08:06;;;;;;;2.87;2.30;;;7.00;98.80;;;;;;5007978;28;20234;-89
2023/11/24 06:10:34;;;;;;;2.60;2.07;;;7.00;98.90;;;;;;5009891;28;20200;-89
2023/11/24 06:13:00;;;;;;;2.50;2.30;;;7.10;98.70;;;;;;5013992;28;20195;-89
2023/11/24 06:15:27;;;;;;;2.28;1.92;;;7.10;98.50;;;;;;5014939;28;20222;-89
2023/11/24 06:17:54;;;;;;;2.13;1.93;;;7.20;98.60;;;;;;5016568;28;20199;-89
2023/11/24 06:20:21;;;;;;;2.40;2.20;;;7.20;98.60;;;;;;5016885;28;20671;-89
2023/11/24 06:22:48;;;;;;;2.40;2.20;;;7.20;98.20;;;;;;5013965;28;20195;-89
2023/11/24 06:25:16;;;;;;;3.90;2.67;;;7.20;98.00;;;;;;5008927;28;20667;-89
2023/11/24 06:27:44;;;;;;;3.15;2.60;;;7.20;98.10;;;;;;5011137;28;20207;-89
2023/11/24 06:30:11;;;;;;;2.72;2.42;;;7.30;98.00;;;;;;5011787;28;20293;-90
2023/11/24 06:32:38;;;;;;;3.60;2.60;;;7.30;97.70;;;;;;5014102;28;20206;-89
2023/11/24 06:35:07;;;;;;;3.27;2.60;;;7.40;97.80;;;;;;5011788;28;20558;-90
2023/11/24 06:37:34;;;;;;;2.92;2.63;;;7.40;97.60;;;;;;5009534;28;20195;-90
2023/11/24 06:40:02;;;;;;;2.60;2.40;;;7.30;97.80;;;;;;5013535;28;20266;-89
2023/11/24 06:42:31;;;;;;;2.70;2.50;;;7.40;97.60;;;;;;5012619;28;20206;-90
2023/11/24 06:44:58;;;;;;;2.80;2.45;;;7.40;97.60;;;;;;5011862;28;20226;-90
2023/11/24 06:47:25;;;;;;;2.60;2.40;;;7.40;97.60;;;;;;5018732;28;20572;-88
2023/11/24 06:49:52;;;;;;;4.05;2.58;;;7.40;97.70;;;;;;4983985;28;20273;-88
2023/11/24 06:52:19;;;;;;;4.88;3.30;;;7.40;97.70;;;;;;5032341;28;20223;-90
2023/11/24 06:54:46;;;;;;;3.13;2.80;;;7.40;97.80;;;;;;5013463;28;20235;-88
2023/11/24 06:57:13;;;;;;;2.90;2.60;;;7.40;97.80;;;;;;5011477;28;20199;-90
2023/11/24 06:59:42;;;;;;;3.10;2.80;;;7.40;97.90;;;;;;5011164;28;20203;-89
2023/11/24 07:02:09;;;;;;;3.40;2.92;;;7.40;98.20;;;;;;5013089;28;20286;-88
2023/11/24 07:04:36;;;;;;;3.05;2.75;;;7.40;98.40;;;;;;5007704;28;20207;-88
2023/11/24 07:07:03;;;;;;;3.20;2.90;;;7.40;98.50;;;;;;5010282;28;20258;-88
2023/11/24 07:09:30;;;;;;;3.22;2.92;;;7.40;98.80;;;;;;5007674;28;20195;-89
2023/11/24 07:11:57;;;;;;;3.42;3.00;;;7.30;99.10;;;;;;5006120;28;20192;-89
2023/11/24 07:14:23;;;;;;;3.95;2.67;;;7.40;99.20;;;;;;5010971;28;20199;-87
2023/11/24 07:16:52;;;;;;;3.28;2.97;;;7.30;99.20;;;;;;5013255;28;20683;-89
2023/11/24 07:19:21;;;;;;;5.38;3.22;;;7.30;99.70;;;;;;5012378;28;20199;-90
2023/11/24 07:21:50;;;;;;;3.67;3.38;;;7.30;99.60;;;;;;5014696;28;20211;-90
2023/11/24 07:24:17;;;;;;;4.00;3.40;;;7.20;99.90;;;;;;5011360;28;20199;-89
2023/11/24 07:26:44;;;;;;;3.67;3.38;;;7.20;99.90;;;;;;5010974;28;20552;-90
2023/11/24 07:29:14;;;;;;;3.73;3.27;;;7.20;99.90;;;;;;5010729;28;20203;-89
2023/11/24 07:31:40;;;;;;;4.72;3.28;;;7.30;99.60;;;;;;5006414;28;20207;-90
2023/11/24 07:34:10;;;;;;;4.15;3.40;;;7.30;99.80;;;;;;5008574;28;20569;-90
2023/11/24 07:36:37;;;;;;;3.05;2.30;;;7.30;99.80;;;;;;5006180;28;20216;-90
2023/11/24 07:39:04;;;;;;;3.45;2.28;;;7.10;98.90;;;;;;5009207;28;20225;-90
2023/11/24 07:41:31;;;;;;;4.43;2.70;;;6.90;98.70;;;;;;5009430;28;20219;-91
2023/11/24 07:43:58;;;;;;;3.65;1.92;;;6.50;98.80;;;;;;5011995;28;20200;-90
2023/11/24 07:46:25;;;;;;;4.57;1.87;;;6.40;99.60;;;;;;4993716;28;20546;-90
2023/11/24 07:48:52;;;;;;;5.60;2.10;;;6.10;99.90;;;;;;5009987;28;20211;-90
2023/11/24 07:51:21;;;;;;;2.80;1.60;;;6.00;99.90;;;;;;5012983;28;20234;-89
2023/11/24 07:53:50;;;;;;;2.50;1.47;;;5.90;99.90;;;;;;5009451;28;20205;-89
2023/11/24 07:56:17;;;;;;;4.53;1.83;;;5.80;99.90;;;;;;5006794;28;20222;-92
2023/11/24 07:58:44;;;;;;;4.93;2.00;;;5.70;99.90;;;;;;5011326;28;20200;-90
2023/11/24 08:01:11;;;;;;;7.90;1.67;;;5.70;99.90;;;;;;5014083;28;20202;-91
2023/11/24 08:03:37;;;;;;;4.83;1.60;;;5.60;99.90;;;;;;5013111;28;20208;-92
2023/11/24 08:06:07;;;;;;;5.50;2.00;;;5.60;99.90;;;;;;5012896;28;20204;-90
2023/11/24 08:08:36;;;;;;;7.13;2.00;;;5.60;99.90;;;;;;5013661;28;20562;-91
2023/11/24 08:11:03;;;;;;;4.73;1.70;;;5.60;99.90;;;;;;5006183;28;20929;-90
2023/11/24 08:13:30;;;;;;;3.90;1.60;;;5.50;99.90;;;;;;5012592;28;20200;-91
2023/11/24 08:16:00;;;;;;;5.40;1.90;;;5.40;99.90;;;;;;5011923;28;20559;-93
2023/11/24 08:18:27;;;;;;;8.70;1.90;;;5.50;99.90;;;;;;5015968;28;20203;-92
2023/11/24 08:20:53;;;;;;;6.60;1.80;;;5.40;99.90;;;;;;5012291;28;20211;-90
2023/11/24 08:23:21;;;;;;;6.70;2.43;;;5.30;99.90;;;;;;4993991;28;20203;-93
2023/11/24 08:25:50;;;;;;;4.33;1.43;;;5.30;99.90;;;;;;5011810;28;20203;-91
2023/11/24 08:28:17;;;;;;;5.00;1.70;;;5.30;99.90;;;;;;5014022;28;20200;-91
2023/11/24 08:30:44;;;;;;;6.33;1.60;;;5.20;99.90;;;;;;5012398;28;20616;-92
2023/11/24 08:33:11;;;;;;;3.50;1.57;;;5.20;99.90;;;;;;5007484;28;20199;-90
2023/11/24 08:35:39;;;;;;;4.53;1.47;;;5.30;99.90;;;;;;5006327;28;20226;-90
2023/11/24 08:38:06;;;;;;;6.30;1.60;;;5.30;99.90;;;;;;5006737;28;20211;-90
2023/11/24 08:40:35;;;;;;;5.93;1.60;;;5.30;99.90;;;;;;5010147;28;20283;-93
2023/11/24 08:43:04;;;;;;;2.37;1.40;;;5.30;99.90;;;;;;5013090;28;20195;-91
2023/11/24 08:45:31;;;;;;;5.00;1.67;;;5.20;99.90;;;;;;5015048;28;20538;-91
2023/11/24 08:47:58;;;;;;;2.83;1.63;;;5.10;99.90;;;;;;5013206;28;20290;-93
2023/11/24 08:50:26;;;;;;;3.90;1.80;;;5.10;99.90;;;;;;5009921;28;20677;-94
2023/11/24 08:52:53;;;;;;;5.33;1.40;;;5.10;99.90;;;;;;5014827;28;20210;-93
2023/11/24 08:55:19;;;;;;;3.83;1.50;;;5.10;99.90;;;;;;5018332;28;20250;-91
2023/11/24 08:57:46;;;;;;;4.63;1.50;;;5.10;99.90;;;;;;5013636;28;20990;-92
2023/11/24 09:00:16;;;;;;;5.37;1.80;;;5.10;99.90;;;;;;5011431;28;20210;-91
2023/11/24 09:02:43;;;;;;;4.57;1.60;;;5.20;99.90;;;;;;5009108;28;20203;-91
2023/11/24 09:05:09;;;;;;;4.80;1.40;;;5.10;99.90;;;;;;5010189;28;20270;-91
2023/11/24 09:07:36;;;;;;;6.40;2.27;;;5.20;99.90;;;;;;5002589;28;20621;-91
2023/11/24 09:10:04;;;;;;;6.87;1.87;;;5.20;99.90;;;;;;5010391;28;20222;-90
2023/11/24 09:12:31;;;;;;;7.30;1.97;;;5.20;99.90;;;;;;5008334;28;20199;-89
2023/11/24 09:14:58;;;;;;;5.63;1.87;;;5.20;99.90;;;;;;5009293;28;20281;-90
2023/11/24 09:17:26;;;;;;;4.77;1.63;;;5.20;99.90;;;;;;5011838;28;20227;-90
2023/11/24 09:19:54;;;;;;;6.03;1.73;;;5.30;99.90;;;;;;5014986;28;20278;-90
2023/11/24 09:22:21;;;;;;;6.10;3.03;;;5.20;99.90;;;;;;5013864;28;20285;-89
2023/11/24 09:24:48;;;;;;;6.17;2.17;;;5.20;99.90;;;;;;5010446;28;20214;-88
2023/11/24 09:27:16;;;;;;;5.00;1.70;;;5.10;99.90;;;;;;5012047;28;20210;-90
2023/11/24 09:29:43;;;;;;;7.33;2.13;;;5.10;99.90;;;;;;5008961;28;20210;-89
2023/11/24 09:32:11;;;;;;;5.97;2.47;;;5.10;99.90;;;;;;5008179;28;20203;-89
2023/11/24 09:34:44;;;;;;;8.70;2.57;;;5.10;99.90;;;;;;5007885;28;20265;-90
2023/11/24 09:37:11;;;;;;;4.47;1.90;;;5.00;99.90;;;;;;5011342;28;20595;-89
2023/11/24 09:39:38;;;;;;;7.93;2.37;;;5.00;99.90;;;;;;5009751;28;20210;-89
2023/11/24 09:42:05;;;;;;;7.50;2.10;;;5.10;99.90;;;;;;5009457;28;20199;-91
2023/11/24 09:44:33;;;;;;;7.03;2.10;;;5.00;99.90;;;;;;5006711;28;20207;-90
2023/11/24 09:47:01;;;;;;;8.87;2.17;;;5.00;99.90;;;;;;5003936;28;21202;-90
2023/11/24 09:49:28;;;;;;;6.03;1.87;;;4.90;99.90;;;;;;5009491;28;20207;-89
2023/11/24 09:52:01;;;;;;;3.73;2.33;;;4.90;99.90;;;;;;5006687;28;20226;-90
2023/11/24 09:54:28;;;;;;;3.40;1.80;;;4.70;99.90;;;;;;5004186;28;20188;-89
2023/11/24 09:56:56;;;;;;;4.97;2.37;;;4.70;99.90;;;;;;5005402;28;20219;-89
2023/11/24 09:59:23;;;;;;;5.87;1.70;;;4.70;99.90;;;;;;5014885;28;20199;-90
2023/11/24 10:01:53;;;;;;;5.43;2.40;;;4.60;99.90;;;;;;5029426;28;20230;-91
2023/11/24 10:04:19;;;;;;;6.17;2.03;;;4.60;99.90;;;;;;5031311;28;20206;-90
2023/11/24 10:06:49;;;;;;;5.53;1.80;;;4.60;99.90;;;;;;5029490;28;20266;-91
2023/11/24 10:09:22;;;;;;;8.03;1.97;;;4.60;99.90;;;;;;5007904;28;20253;-91
2023/11/24 10:11:49;;;;;;;6.43;1.70;;;4.60;99.90;;;;;;5009036;28;20215;-89
2023/11/24 10:14:16;;;;;;;6.23;2.20;;;4.60;99.90;;;;;;5008166;28;20203;-91
2023/11/24 10:16:43;;;;;;;3.80;1.40;;;4.70;99.90;;;;;;5009386;28;20251;-91
2023/11/24 10:19:14;;;;;;;5.67;1.80;;;4.60;99.90;;;;;;5008378;28;20199;-89
2023/11/24 10:21:44;;;;;;;5.20;1.70;;;4.60;99.90;;;;;;5007547;28;20652;-89
2023/11/24 10:24:10;;;;;;;5.80;1.70;;;4.60;99.90;;;;;;5003369;28;20294;-90
2023/11/24 10:26:40;;;;;;;5.87;1.60;;;4.60;99.90;;;;;;5009877;28;20671;-90
2023/11/24 10:29:08;;;;;;;3.83;1.60;;;4.50;99.90;;;;;;5009059;28;20290;-90
2023/11/24 10:31:36;;;;;;;9.33;1.70;;;4.50;99.90;;;;;;5010231;28;20206;-93
2023/11/24 10:34:03;;;;;;;5.90;1.50;;;4.40;99.90;;;;;;5007831;28;20203;-89
2023/11/24 10:36:31;;;;;;;5.07;1.70;;;4.40;99.90;;;;;;4994794;28;20230;-90
2023/11/24 10:39:02;;;;;;;4.27;2.10;;;4.30;99.90;;;;;;5011492;28;20195;-90
2023/11/24 10:41:31;;;;;;;4.83;1.90;;;4.30;99.90;;;;;;5008149;28;20207;-89
2023/11/24 10:44:03;;;;;;;3.27;1.30;;;4.30;99.90;;;;;;5006788;28;20246;-91
2023/11/24 10:46:36;;;;;;;11.63;2.23;;;4.30;99.90;;;;;;5010406;28;20241;-91
2023/11/24 10:49:07;;;;;;;5.73;1.70;;;4.30;99.90;;;;;;5014035;28;20206;-92
2023/11/24 10:54:13;;;;;;;6.50;1.90;;;4.30;99.90;;;;;;5011330;28;20459;-89
2023/11/24 10:59:19;;;;;;;3.20;1.40;;;4.30;99.90;;;;;;5030688;23;21154;-90
2023/11/24 11:01:47;;;;;;;2.63;1.47;;;4.20;99.90;;;;;;5011155;28;20231;-93
2023/11/24 11:04:15;;;;;;;4.03;1.50;;;4.10;99.90;;;;;;5014337;28;20213;-91
2023/11/24 11:06:45;;;;;;;3.53;1.40;;;4.10;99.90;;;;;;5003803;28;20902;-92
2023/11/24 11:09:24;;;;;;;1.57;1.10;;;4.10;99.90;;;;;;5011997;28;20641;-93
2023/11/24 11:12:29;;;;;;;3.13;1.30;;;4.20;99.90;;;;;;5000069;28;20687;-90
2023/11/24 11:14:58;;;;;;;2.83;1.53;;;4.10;99.90;;;;;;5000622;28;20218;-89
2023/11/24 11:17:26;;;;;;;3.37;1.23;;;4.10;99.90;;;;;;5008639;28;20302;-88
2023/11/24 11:20:00;;;;;;;1.73;1.40;;;4.10;99.90;;;;;;5013034;28;20230;-90
2023/11/24 11:22:31;;;;;;;2.03;1.43;;;4.10;99.90;;;;;;5005920;28;20282;-89
2023/11/24 11:25:32;;;;;;;1.67;1.30;;;4.00;99.90;;;;;;5003368;28;20210;-91
2023/11/24 11:28:45;;;;;;;3.27;1.73;;;4.00;99.90;;;;;;5003559;28;20233;-89
2023/11/24 11:31:37;;;;;;;4.33;1.37;;;3.90;99.90;;;;;;5008337;28;20427;-89
2023/11/24 11:34:16;;;;;;;2.10;1.40;;;4.00;99.90;;;;;;4999809;28;20331;-89
2023/11/24 11:37:04;;;;;;;2.43;1.60;;;4.10;99.90;;;;;;5005058;28;20314;-88
2023/11/24 11:39:35;;;;;;;2.13;1.40;;;4.10;99.90;;;;;;5004984;28;20209;-87
2023/11/24 11:42:02;;;;;;;2.83;1.43;;;4.10;99.90;;;;;;5010031;28;20205;-87
2023/11/24 11:44:46;;;;;;;3.03;1.60;;;4.10;99.90;;;;;;5004498;28;20207;-88
2023/11/24 11:47:28;;;;;;;2.63;1.53;;;4.10;99.90;;;;;;5006007;28;20208;-86
2023/11/24 11:49:56;;;;;;;1.77;1.50;;;4.20;99.90;;;;;;5007447;28;20202;-87
2023/11/24 11:52:25;;;;;;;3.03;1.67;;;4.30;99.90;;;;;;4993197;28;20224;-87
2023/11/24 11:54:53;;;;;;;3.90;1.80;;;4.30;99.90;;;;;;4986125;28;20192;-87
2023/11/24 11:57:21;;;;;;;2.80;1.80;;;4.30;99.90;;;;;;4986072;28;20223;-88
2023/11/24 11:59:52;;;;;;;2.73;1.80;;;4.30;99.90;;;;;;4985553;28;20273;-88
2023/11/24 12:02:24;;;;;;;4.23;1.90;;;4.40;99.90;;;;;;4991925;28;20195;-91
2023/11/24 12:04:51;;;;;;;3.23;2.13;;;4.40;99.90;;;;;;4980529;28;20300;-92
2023/11/24 12:07:19;;;;;;;2.60;1.53;;;4.50;99.90;;;;;;4982753;28;20212;-91
2023/11/24 12:09:47;;;;;;;3.30;1.37;;;4.60;99.90;;;;;;4990478;28;20672;-90
2023/11/24 12:12:14;;;;;;;3.57;1.10;;;4.50;99.90;;;;;;4988708;28;20428;-88
2023/11/24 12:14:43;;;;;;;3.43;0.90;;;4.30;99.90;;;;;;4998457;28;20279;-89
2023/11/24 12:17:12;;;;;;;1.70;0.87;;;4.20;99.90;;;;;;5001741;28;20639;-89
2023/11/24 12:19:40;;;;;;;2.17;1.07;;;4.10;99.90;;;;;;4993605;28;20203;-92
2023/11/24 12:22:18;;;;;;;2.87;1.33;;;4.10;99.90;;;;;;4985298;28;20203;-88
2023/11/24 12:24:45;;;;;;;2.73;1.40;;;4.10;99.90;;;;;;4996992;28;20215;-90
2023/11/24 12:27:13;;;;;;;3.70;1.43;;;4.00;99.90;;;;;;4989753;28;20288;-87
2023/11/24 12:29:41;;;;;;;4.43;1.10;;;4.10;99.90;;;;;;4990711;28;21369;-92
2023/11/24 12:32:09;;;;;;;1.70;1.00;;;4.10;99.90;;;;;;4995548;28;20211;-90
2023/11/24 12:34:41;;;;;;;1.33;0.90;;;4.10;99.90;;;;;;4992153;28;20200;-89
2023/11/24 12:37:10;;;;;;;1.70;1.00;;;4.10;99.90;;;;;;4989897;28;20631;-90
2023/11/24 12:39:40;;;;;;;1.50;1.07;;;4.10;99.90;;;;;;4984518;28;20197;-93
2023/11/24 12:42:07;;;;;;;3.73;0.90;;;4.10;99.90;;;;;;4988750;28;20204;-88
2023/11/24 12:44:36;;;;;;;6.00;1.47;;;4.10;99.90;;;;;;4987319;28;20204;-93
2023/11/24 12:47:24;;;;;;;1.67;1.20;;;4.10;99.90;;;;;;4989586;28;20195;-90
2023/11/24 12:50:02;;;;;;;3.50;1.60;;;4.20;99.90;;;;;;4989864;28;20203;-92
2023/11/24 12:52:32;;;;;;;5.70;1.43;;;4.20;99.90;;;;;;4985225;28;20224;-89
2023/11/24 12:54:59;;;;;;;3.03;1.20;;;4.30;99.90;;;;;;4989327;28;20664;-90
2023/11/24 12:57:27;;;;;;;2.83;1.60;;;4.40;99.90;;;;;;4984282;28;20739;-89
2023/11/24 12:59:56;;;;;;;4.47;1.40;;;4.30;99.90;;;;;;4988682;28;20195;-86
2023/11/24 13:02:24;;;;;;;2.70;1.20;;;4.40;99.90;;;;;;4985286;28;20213;-89
2023/11/24 13:04:52;;;;;;;2.63;1.27;;;4.40;99.90;;;;;;4999348;28;20212;-92
2023/11/24 13:07:19;;;;;;;4.07;1.60;;;4.40;99.90;;;;;;4993955;28;20219;-91
2023/11/24 13:09:49;;;;;;;2.13;1.43;;;4.40;99.90;;;;;;4985536;28;20209;-90